Time;durP1;ratioP1;P1;durP2;ratioP2;P2;SDS_P1;SDS_P2;PMS_P1;PMS_P2;Temp;Humidity;BMP_temperature;BMP_pressure;BME280_temperature;BME280_humidity;BME280_pressure;Samples;Min_cycle;Max_cycle;Signal;HPM_P1;HPM_P2
2023/05/10 00:00:08;;;;;;;2.50;1.50;;;;;;;;;;5054233;28;20443;-85
2023/05/10 00:02:34;;;;;;;2.43;2.00;;;;;;;;;;5054055;28;20404;-84
2023/05/10 00:05:00;;;;;;;2.40;1.60;;;;;;;;;;5054043;28;20778;-83
2023/05/10 00:07:26;;;;;;;2.97;1.50;;;;;;;;;;5053807;28;20452;-84
2023/05/10 00:09:52;;;;;;;3.40;1.87;;;;;;;;;;5050825;28;20531;-83
2023/05/10 00:12:18;;;;;;;4.97;1.83;;;;;;;;;;5016306;28;20233;-84
2023/05/10 00:14:44;;;;;;;2.73;2.00;;;;;;;;;;5033174;28;20941;-83
2023/05/10 00:17:10;;;;;;;2.87;1.40;;;;;;;;;;5016205;28;20412;-84
2023/05/10 00:19:39;;;;;;;1.47;0.70;;;;;;;;;;5033900;28;20486;-83
2023/05/10 00:22:05;;;;;;;2.87;1.00;;;;;;;;;;5033548;28;20420;-85
2023/05/10 00:24:31;;;;;;;2.23;1.23;;;;;;;;;;5033668;28;20416;-84
2023/05/10 00:26:57;;;;;;;3.00;1.33;;;;;;;;;;5033581;28;20412;-84
2023/05/10 00:29:23;;;;;;;2.90;1.50;;;;;;;;;;5016041;28;20427;-83
2023/05/10 00:31:49;;;;;;;2.60;1.57;;;;;;;;;;5016072;28;20949;-83
2023/05/10 00:34:15;;;;;;;2.10;1.07;;;;;;;;;;5033507;28;20477;-83
2023/05/10 00:36:41;;;;;;;2.07;1.40;;;;;;;;;;5032357;28;20429;-83
2023/05/10 00:39:07;;;;;;;2.03;1.30;;;;;;;;;;5015947;28;20241;-88
2023/05/10 00:41:33;;;;;;;2.57;1.87;;;;;;;;;;5032904;28;20464;-84
2023/05/10 00:44:00;;;;;;;2.90;1.60;;;;;;;;;;5014162;28;20414;-84
2023/05/10 00:46:26;;;;;;;2.70;1.57;;;;;;;;;;5032819;28;20503;-84
2023/05/10 00:48:52;;;;;;;2.70;1.00;;;;;;;;;;5032886;28;20496;-84
2023/05/10 00:51:19;;;;;;;2.80;1.70;;;;;;;;;;5033014;28;21102;-85
2023/05/10 00:53:46;;;;;;;3.80;1.90;;;;;;;;;;5011000;28;20472;-86
2023/05/10 00:56:12;;;;;;;2.30;1.67;;;;;;;;;;5013262;28;20426;-83
2023/05/10 00:58:38;;;;;;;2.00;1.50;;;;;;;;;;5011992;28;20411;-83
2023/05/10 01:01:05;;;;;;;3.33;1.80;;;;;;;;;;5013136;28;20884;-84
2023/05/10 01:03:31;;;;;;;2.37;2.00;;;;;;;;;;5013538;28;20806;-84
2023/05/10 01:05:57;;;;;;;2.17;1.73;;;;;;;;;;5013505;28;20410;-83
2023/05/10 01:08:23;;;;;;;2.33;1.03;;;;;;;;;;5013112;28;20431;-83
2023/05/10 01:10:50;;;;;;;3.43;2.10;;;;;;;;;;5024493;28;20482;-83
2023/05/10 01:13:23;;;;;;;2.10;1.40;;;;;;;;;;5033084;28;20424;-86
2023/05/10 01:15:50;;;;;;;3.13;2.10;;;;;;;;;;5033032;28;21037;-83
2023/05/10 01:18:17;;;;;;;5.70;0.93;;;;;;;;;;5041306;28;20414;-83
2023/05/10 01:20:48;;;;;;;3.20;1.97;;;;;;;;;;5072967;28;20415;-84
2023/05/10 01:23:23;;;;;;;2.27;1.27;;;;;;;;;;5054657;28;20422;-83
2023/05/10 01:25:58;;;;;;;2.27;0.97;;;;;;;;;;5054909;28;20427;-85
2023/05/10 01:28:37;;;;;;;1.63;1.33;;;;;;;;;;5072889;28;20413;-85
2023/05/10 01:31:22;;;;;;;1.97;1.30;;;;;;;;;;5072976;28;20410;-83
2023/05/10 01:34:03;;;;;;;5.17;2.03;;;;;;;;;;5054745;28;20989;-84
2023/05/10 01:36:29;;;;;;;2.10;1.47;;;;;;;;;;5072530;28;20425;-85
2023/05/10 01:39:14;;;;;;;2.57;1.73;;;;;;;;;;5054748;28;20497;-83
2023/05/10 01:42:02;;;;;;;3.53;2.07;;;;;;;;;;5072772;28;20201;-84
2023/05/10 01:44:49;;;;;;;3.90;1.90;;;;;;;;;;5054363;28;20911;-84
2023/05/10 01:47:25;;;;;;;2.93;1.30;;;;;;;;;;5072725;28;20406;-83
2023/05/10 01:49:53;;;;;;;2.67;2.10;;;;;;;;;;5054787;28;20421;-84
2023/05/10 01:52:22;;;;;;;2.90;1.60;;;;;;;;;;5054298;28;20807;-84
2023/05/10 01:54:57;;;;;;;2.60;1.97;;;;;;;;;;5072625;28;20483;-83
2023/05/10 01:57:25;;;;;;;2.40;1.33;;;;;;;;;;5054733;28;20511;-83
2023/05/10 01:59:51;;;;;;;1.70;1.20;;;;;;;;;;5072614;28;20427;-84
2023/05/10 02:02:19;;;;;;;2.77;1.77;;;;;;;;;;5072560;28;20414;-83
2023/05/10 02:04:45;;;;;;;2.73;1.70;;;;;;;;;;5072465;28;20452;-83
2023/05/10 02:07:12;;;;;;;2.00;1.33;;;;;;;;;;5072127;28;20936;-85
2023/05/10 02:09:38;;;;;;;2.57;1.60;;;;;;;;;;5072312;28;20446;-85
2023/05/10 02:12:05;;;;;;;3.00;1.87;;;;;;;;;;5072543;28;20409;-85
2023/05/10 02:14:34;;;;;;;2.80;1.30;;;;;;;;;;5072351;28;20465;-83
2023/05/10 02:17:02;;;;;;;2.00;1.27;;;;;;;;;;5072476;28;20432;-85
2023/05/10 02:19:29;;;;;;;3.93;1.37;;;;;;;;;;5054470;28;20806;-86
2023/05/10 02:21:56;;;;;;;2.20;1.57;;;;;;;;;;5072027;28;20410;-87
2023/05/10 02:24:23;;;;;;;2.10;1.90;;;;;;;;;;5072515;28;20451;-86
2023/05/10 02:26:50;;;;;;;1.80;0.90;;;;;;;;;;5054464;28;20403;-85
2023/05/10 02:29:16;;;;;;;2.00;1.43;;;;;;;;;;5072344;28;20424;-85
2023/05/10 02:31:43;;;;;;;2.73;1.00;;;;;;;;;;5072265;28;20402;-84
2023/05/10 02:34:10;;;;;;;2.90;1.50;;;;;;;;;;5072215;28;20467;-84
2023/05/10 02:36:36;;;;;;;5.73;1.43;;;;;;;;;;5053984;28;20420;-83
2023/05/10 02:39:03;;;;;;;3.37;1.43;;;;;;;;;;5074435;28;20412;-84
2023/05/10 02:41:31;;;;;;;2.80;1.07;;;;;;;;;;5075951;28;20410;-83
2023/05/10 02:44:00;;;;;;;3.20;1.37;;;;;;;;;;5075614;28;20441;-84
2023/05/10 02:46:26;;;;;;;4.07;1.73;;;;;;;;;;5075687;28;20642;-83
2023/05/10 02:48:52;;;;;;;2.60;0.90;;;;;;;;;;5075743;28;20413;-84
2023/05/10 02:51:18;;;;;;;2.50;1.40;;;;;;;;;;5075332;28;20396;-84
2023/05/10 02:53:46;;;;;;;3.03;1.13;;;;;;;;;;5075557;28;20460;-83
2023/05/10 02:56:14;;;;;;;2.07;1.30;;;;;;;;;;5075618;28;20632;-86
2023/05/10 02:58:40;;;;;;;1.97;1.47;;;;;;;;;;5075487;28;20411;-84
2023/05/10 03:01:07;;;;;;;3.00;2.23;;;;;;;;;;5075546;28;20426;-83
2023/05/10 03:03:33;;;;;;;1.67;1.57;;;;;;;;;;5075465;28;20407;-85
2023/05/10 03:05:59;;;;;;;2.97;1.67;;;;;;;;;;5075113;28;20422;-82
2023/05/10 03:08:25;;;;;;;2.20;1.60;;;;;;;;;;5075371;28;20777;-82
2023/05/10 03:10:59;;;;;;;1.60;1.37;;;;;;;;;;5053802;28;20848;-82
2023/05/10 03:13:31;;;;;;;4.20;1.57;;;;;;;;;;5055149;28;20404;-83
2023/05/10 03:16:05;;;;;;;2.60;1.37;;;;;;;;;;5055207;28;20428;-85
2023/05/10 03:18:41;;;;;;;2.10;1.60;;;;;;;;;;5055226;28;20424;-84
2023/05/10 03:21:10;;;;;;;3.57;2.20;;;;;;;;;;5054840;28;20416;-83
2023/05/10 03:23:39;;;;;;;2.50;1.77;;;;;;;;;;5055130;28;20919;-83
2023/05/10 03:26:18;;;;;;;2.33;1.40;;;;;;;;;;5055045;28;20518;-83
2023/05/10 03:28:44;;;;;;;1.87;1.50;;;;;;;;;;5054980;28;20459;-83
2023/05/10 03:31:10;;;;;;;2.53;1.60;;;;;;;;;;5054951;28;20405;-83
2023/05/10 03:33:36;;;;;;;4.87;1.27;;;;;;;;;;5054737;28;20423;-83
2023/05/10 03:36:02;;;;;;;2.70;1.57;;;;;;;;;;5054482;28;20516;-84
2023/05/10 03:38:28;;;;;;;2.30;1.50;;;;;;;;;;5054817;28;20406;-83
2023/05/10 03:40:53;;;;;;;2.60;1.23;;;;;;;;;;5054836;28;20430;-85
2023/05/10 03:43:19;;;;;;;2.80;1.40;;;;;;;;;;5053429;28;20421;-83
2023/05/10 03:45:45;;;;;;;3.10;1.87;;;;;;;;;;5054627;28;20501;-85
2023/05/10 03:48:13;;;;;;;4.50;1.93;;;;;;;;;;5054620;28;20868;-83
2023/05/10 03:50:39;;;;;;;2.33;1.70;;;;;;;;;;5053609;28;20404;-84
2023/05/10 03:53:05;;;;;;;3.10;2.20;;;;;;;;;;5052996;28;20412;-83
2023/05/10 03:55:34;;;;;;;3.20;1.90;;;;;;;;;;5054366;28;20853;-83
2023/05/10 03:58:00;;;;;;;2.92;2.10;;;;;;;;;;5052531;28;20407;-84
2023/05/10 04:00:26;;;;;;;2.83;1.43;;;;;;;;;;5054381;28;20200;-84
2023/05/10 04:02:52;;;;;;;2.60;1.77;;;;;;;;;;5054446;28;20421;-84
2023/05/10 04:05:18;;;;;;;2.63;1.63;;;;;;;;;;5054265;28;20438;-84
2023/05/10 04:07:44;;;;;;;2.90;1.53;;;;;;;;;;5052571;28;20504;-85
2023/05/10 04:10:10;;;;;;;2.73;1.83;;;;;;;;;;5059960;28;20465;-82
2023/05/10 04:12:36;;;;;;;3.33;1.50;;;;;;;;;;5074074;28;20512;-83
2023/05/10 04:15:08;;;;;;;2.37;1.50;;;;;;;;;;5074059;28;20609;-83
2023/05/10 04:17:34;;;;;;;3.50;2.13;;;;;;;;;;5074009;28;20500;-84
2023/05/10 04:19:59;;;;;;;3.13;1.03;;;;;;;;;;5073988;28;20559;-83
2023/05/10 04:22:27;;;;;;;3.90;2.27;;;;;;;;;;5073639;28;20883;-83
2023/05/10 04:24:53;;;;;;;6.80;1.47;;;;;;;;;;5073823;28;20428;-86
2023/05/10 04:27:19;;;;;;;4.00;1.93;;;;;;;;;;5073738;28;20410;-83
2023/05/10 04:29:45;;;;;;;3.50;1.80;;;;;;;;;;5073679;28;20179;-83
2023/05/10 04:32:11;;;;;;;3.10;1.40;;;;;;;;;;5073673;28;20413;-83
2023/05/10 04:34:37;;;;;;;2.10;1.30;;;;;;;;;;5073580;28;20974;-83
2023/05/10 04:37:03;;;;;;;2.23;1.40;;;;;;;;;;5073270;28;20450;-84
2023/05/10 04:39:29;;;;;;;3.57;2.10;;;;;;;;;;5073622;28;20451;-83
2023/05/10 04:41:55;;;;;;;2.70;1.50;;;;;;;;;;5073561;28;20469;-86
2023/05/10 04:44:21;;;;;;;2.90;2.13;;;;;;;;;;5073552;28;20420;-84
2023/05/10 04:46:47;;;;;;;2.73;1.50;;;;;;;;;;5073555;28;20169;-84
2023/05/10 04:49:16;;;;;;;2.90;1.80;;;;;;;;;;5073441;28;20915;-87
2023/05/10 04:51:42;;;;;;;2.97;1.23;;;;;;;;;;5073009;28;20168;-87
2023/05/10 04:54:08;;;;;;;7.23;1.90;;;;;;;;;;5073301;28;20574;-85
2023/05/10 04:56:34;;;;;;;2.80;1.13;;;;;;;;;;5073265;28;20428;-83
2023/05/10 04:59:00;;;;;;;3.47;1.77;;;;;;;;;;5073308;28;20793;-84
2023/05/10 05:01:26;;;;;;;2.20;1.00;;;;;;;;;;5072956;28;20411;-85
2023/05/10 05:03:52;;;;;;;6.10;2.30;;;;;;;;;;5073183;28;20939;-85
2023/05/10 05:06:18;;;;;;;2.97;1.60;;;;;;;;;;5072855;28;20405;-83
2023/05/10 05:08:44;;;;;;;1.97;1.30;;;;;;;;;;5073379;28;20413;-83
2023/05/10 05:11:11;;;;;;;3.80;2.00;;;;;;;;;;5051651;28;20483;-83
2023/05/10 05:13:37;;;;;;;6.37;3.40;;;;;;;;;;5051737;28;20428;-83
2023/05/10 05:16:03;;;;;;;5.87;2.53;;;;;;;;;;5051784;28;20428;-82
2023/05/10 05:18:29;;;;;;;2.70;1.87;;;;;;;;;;5052928;28;20422;-84
2023/05/10 05:20:55;;;;;;;2.70;2.27;;;;;;;;;;5052495;28;20416;-85
2023/05/10 05:23:24;;;;;;;2.63;2.10;;;;;;;;;;5051754;28;20418;-83
2023/05/10 05:25:50;;;;;;;3.97;1.60;;;;;;;;;;5051747;28;20760;-84
2023/05/10 05:28:16;;;;;;;3.60;2.40;;;;;;;;;;5052914;28;20488;-84
2023/05/10 05:30:42;;;;;;;1.90;1.33;;;;;;;;;;5052715;28;20304;-84
2023/05/10 05:33:08;;;;;;;4.73;1.93;;;;;;;;;;5052707;28;20447;-85
2023/05/10 05:35:34;;;;;;;3.80;2.07;;;;;;;;;;5052568;28;20475;-85
2023/05/10 05:38:00;;;;;;;2.90;1.67;;;;;;;;;;5051596;28;20855;-84
2023/05/10 05:40:26;;;;;;;5.50;2.20;;;;;;;;;;5052290;28;20192;-84
2023/05/10 05:42:52;;;;;;;4.13;2.07;;;;;;;;;;5052572;28;20413;-83
2023/05/10 05:45:18;;;;;;;2.10;1.20;;;;;;;;;;5052049;28;20419;-87
2023/05/10 05:47:44;;;;;;;3.20;1.50;;;;;;;;;;5052444;28;20473;-82
2023/05/10 05:50:10;;;;;;;2.73;1.57;;;;;;;;;;5051360;28;20416;-84
2023/05/10 05:52:36;;;;;;;2.53;1.73;;;;;;;;;;5052238;28;20864;-86
2023/05/10 05:55:02;;;;;;;2.87;2.30;;;;;;;;;;5051214;28;20472;-84
2023/05/10 05:57:28;;;;;;;1.73;1.27;;;;;;;;;;5052665;28;20406;-85
2023/05/10 05:59:54;;;;;;;2.87;1.33;;;;;;;;;;5052600;28;20527;-83
2023/05/10 06:02:20;;;;;;;3.90;2.20;;;;;;;;;;5052589;28;20833;-85
2023/05/10 06:04:46;;;;;;;2.60;1.60;;;;;;;;;;5052650;28;20428;-85
2023/05/10 06:07:12;;;;;;;3.50;1.73;;;;;;;;;;5050995;28;20508;-83
2023/05/10 06:09:41;;;;;;;4.13;1.70;;;;;;;;;;5053913;28;20579;-83
2023/05/10 06:12:07;;;;;;;2.80;2.33;;;;;;;;;;5072646;28;20408;-83
2023/05/10 06:14:32;;;;;;;2.50;1.70;;;;;;;;;;5075451;28;20467;-83
2023/05/10 06:16:59;;;;;;;3.03;2.63;;;;;;;;;;5076309;28;20404;-83
2023/05/10 06:19:26;;;;;;;2.70;1.30;;;;;;;;;;5076291;28;20159;-83
2023/05/10 06:21:52;;;;;;;6.30;1.43;;;;;;;;;;5075888;28;20404;-82
2023/05/10 06:24:18;;;;;;;2.93;1.63;;;;;;;;;;5076302;28;20408;-88
2023/05/10 06:26:43;;;;;;;2.33;1.50;;;;;;;;;;5058188;28;20427;-86
2023/05/10 06:29:09;;;;;;;2.90;1.47;;;;;;;;;;5076040;28;20198;-82
2023/05/10 06:31:35;;;;;;;2.60;1.97;;;;;;;;;;5076094;28;20175;-83
2023/05/10 06:34:01;;;;;;;3.97;2.30;;;;;;;;;;5075895;28;20209;-83
2023/05/10 06:36:27;;;;;;;5.57;2.17;;;;;;;;;;5075719;28;20225;-84
2023/05/10 06:38:53;;;;;;;3.53;1.30;;;;;;;;;;5057992;28;20811;-83
2023/05/10 06:41:20;;;;;;;4.67;1.83;;;;;;;;;;5075986;28;20417;-83
2023/05/10 06:43:46;;;;;;;3.90;1.50;;;;;;;;;;5057829;28;20427;-84
2023/05/10 06:46:12;;;;;;;2.00;0.93;;;;;;;;;;5075734;28;20965;-84
2023/05/10 06:48:38;;;;;;;2.83;1.40;;;;;;;;;;5075825;28;20774;-83
2023/05/10 06:51:04;;;;;;;1.70;1.60;;;;;;;;;;5075421;28;20410;-86
2023/05/10 06:53:30;;;;;;;5.17;2.73;;;;;;;;;;5057685;28;20924;-87
2023/05/10 06:55:56;;;;;;;4.37;2.07;;;;;;;;;;5075592;28;20213;-82
2023/05/10 06:58:22;;;;;;;2.20;1.30;;;;;;;;;;5075535;28;20424;-83
2023/05/10 07:00:48;;;;;;;2.33;1.43;;;;;;;;;;5075658;28;20420;-84
2023/05/10 07:03:14;;;;;;;2.40;1.30;;;;;;;;;;5074395;28;20832;-83
2023/05/10 07:05:40;;;;;;;3.13;1.83;;;;;;;;;;5075073;28;20475;-81
2023/05/10 07:08:06;;;;;;;3.70;1.17;;;;;;;;;;5075360;28;20426;-85
2023/05/10 07:10:32;;;;;;;2.53;2.10;;;;;;;;;;5075167;28;20707;-87
2023/05/10 07:12:58;;;;;;;3.33;1.97;;;;;;;;;;5075385;28;20413;-84
2023/05/10 07:15:24;;;;;;;2.67;1.50;;;;;;;;;;5075293;28;20212;-81
2023/05/10 07:17:51;;;;;;;2.17;1.43;;;;;;;;;;5075288;28;20490;-82
2023/05/10 07:20:17;;;;;;;2.53;1.33;;;;;;;;;;5074908;28;20179;-83
2023/05/10 07:22:43;;;;;;;3.50;2.50;;;;;;;;;;5075210;28;20456;-85
2023/05/10 07:25:09;;;;;;;3.43;1.53;;;;;;;;;;5056944;28;20435;-86
2023/05/10 07:27:35;;;;;;;3.43;1.80;;;;;;;;;;5057040;28;20181;-85
2023/05/10 07:30:01;;;;;;;4.10;2.17;;;;;;;;;;5075070;28;20411;-87
2023/05/10 07:32:27;;;;;;;2.50;1.73;;;;;;;;;;5074961;28;20545;-82
2023/05/10 07:34:53;;;;;;;3.27;1.67;;;;;;;;;;5074772;28;20680;-87
2023/05/10 07:37:19;;;;;;;2.73;1.60;;;;;;;;;;5056558;28;20181;-83
2023/05/10 07:39:45;;;;;;;2.53;1.67;;;;;;;;;;5074841;28;20186;-82
2023/05/10 07:42:11;;;;;;;3.27;2.20;;;;;;;;;;5074792;28;20833;-83
2023/05/10 07:44:37;;;;;;;4.77;2.03;;;;;;;;;;5074751;28;20424;-82
2023/05/10 07:47:02;;;;;;;3.43;2.27;;;;;;;;;;5074610;28;20225;-81
2023/05/10 07:49:28;;;;;;;3.27;2.33;;;;;;;;;;5074548;28;20171;-83
2023/05/10 07:51:54;;;;;;;4.17;2.73;;;;;;;;;;5074244;28;20481;-83
2023/05/10 07:54:21;;;;;;;4.20;1.87;;;;;;;;;;5074523;28;20500;-86
2023/05/10 07:56:47;;;;;;;2.37;1.60;;;;;;;;;;5074487;28;20422;-83
2023/05/10 07:59:17;;;;;;;3.10;1.70;;;;;;;;;;5074576;28;20421;-83
2023/05/10 08:01:43;;;;;;;3.10;1.50;;;;;;;;;;5056562;28;20411;-83
2023/05/10 08:04:09;;;;;;;2.90;1.93;;;;;;;;;;5074280;28;20433;-84
2023/05/10 08:06:35;;;;;;;3.30;2.17;;;;;;;;;;5073905;28;20409;-82
2023/05/10 08:09:02;;;;;;;3.50;1.80;;;;;;;;;;5074222;28;20547;-81
2023/05/10 08:11:28;;;;;;;3.47;2.20;;;;;;;;;;5073837;28;20309;-82
2023/05/10 08:13:54;;;;;;;3.10;1.50;;;;;;;;;;5074107;28;20501;-81
2023/05/10 08:16:20;;;;;;;4.00;1.97;;;;;;;;;;5074044;28;20418;-81
2023/05/10 08:18:50;;;;;;;4.67;2.30;;;;;;;;;;5074036;28;20413;-81
2023/05/10 08:21:16;;;;;;;3.27;1.70;;;;;;;;;;5073679;28;20417;-83
2023/05/10 08:23:43;;;;;;;2.70;2.13;;;;;;;;;;5056039;28;20413;-81
2023/05/10 08:26:09;;;;;;;2.63;2.13;;;;;;;;;;5073890;28;20418;-81
2023/05/10 08:28:35;;;;;;;3.37;2.10;;;;;;;;;;5073910;28;20948;-80
2023/05/10 08:31:01;;;;;;;2.53;1.97;;;;;;;;;;5073841;28;20412;-83
2023/05/10 08:33:27;;;;;;;3.60;2.23;;;;;;;;;;5073697;28;20248;-81
2023/05/10 08:35:53;;;;;;;5.40;2.50;;;;;;;;;;5072832;28;20971;-81
2023/05/10 08:38:19;;;;;;;4.93;2.37;;;;;;;;;;5073638;28;20257;-81
2023/05/10 08:40:45;;;;;;;3.07;1.67;;;;;;;;;;5073883;28;20177;-81
2023/05/10 08:43:12;;;;;;;2.23;1.57;;;;;;;;;;5073566;28;20410;-81
2023/05/10 08:45:39;;;;;;;2.90;2.60;;;;;;;;;;5073406;28;20810;-82
2023/05/10 08:48:09;;;;;;;2.50;2.23;;;;;;;;;;5073468;28;20821;-85
2023/05/10 08:50:39;;;;;;;2.80;1.70;;;;;;;;;;5073141;28;20941;-82
2023/05/10 08:53:07;;;;;;;3.70;2.43;;;;;;;;;;5073371;28;20475;-81
2023/05/10 08:55:33;;;;;;;2.13;1.70;;;;;;;;;;5055330;28;20480;-80
2023/05/10 08:58:00;;;;;;;3.30;2.33;;;;;;;;;;5073368;28;20412;-83
2023/05/10 09:00:30;;;;;;;3.03;2.13;;;;;;;;;;5055304;28;20488;-85
2023/05/10 09:02:56;;;;;;;3.73;2.20;;;;;;;;;;5073324;28;20409;-84
2023/05/10 09:05:22;;;;;;;3.27;1.90;;;;;;;;;;5073013;28;20418;-83
2023/05/10 09:07:48;;;;;;;3.00;1.77;;;;;;;;;;5073151;28;20413;-85
2023/05/10 09:10:15;;;;;;;2.50;2.30;;;;;;;;;;5073022;28;20565;-85
2023/05/10 09:12:41;;;;;;;2.87;2.20;;;;;;;;;;5073169;28;20417;-84
2023/05/10 09:15:09;;;;;;;3.40;2.63;;;;;;;;;;5072975;28;20473;-83
2023/05/10 09:17:36;;;;;;;3.07;1.43;;;;;;;;;;5073035;28;20415;-82
2023/05/10 09:20:03;;;;;;;4.30;2.20;;;;;;;;;;5072697;28;20414;-85
2023/05/10 09:22:30;;;;;;;2.70;2.50;;;;;;;;;;5072999;28;20417;-85
2023/05/10 09:25:15;;;;;;;3.60;2.57;;;;;;;;;;5054974;28;20418;-85
2023/05/10 09:27:42;;;;;;;2.80;1.80;;;;;;;;;;5054968;28;20928;-82
2023/05/10 09:30:08;;;;;;;4.03;2.10;;;;;;;;;;5072948;28;20853;-81
2023/05/10 09:32:38;;;;;;;5.03;2.73;;;;;;;;;;5072810;28;20422;-85
2023/05/10 09:35:11;;;;;;;4.63;2.13;;;;;;;;;;5072326;28;20480;-83
2023/05/10 09:37:37;;;;;;;3.70;1.97;;;;;;;;;;5072816;28;20422;-85
2023/05/10 09:40:07;;;;;;;3.70;2.53;;;;;;;;;;5072763;28;20430;-84
2023/05/10 09:42:33;;;;;;;3.30;2.40;;;;;;;;;;5072844;28;20405;-85
2023/05/10 09:45:03;;;;;;;4.67;2.50;;;;;;;;;;5072790;28;20928;-85
2023/05/10 09:47:30;;;;;;;3.00;2.43;;;;;;;;;;5072840;28;20419;-83
2023/05/10 09:50:02;;;;;;;4.70;3.50;;;;;;;;;;5076223;28;20737;-83
2023/05/10 09:52:28;;;;;;;3.27;2.57;;;;;;;;;;5076826;28;20447;-83
2023/05/10 09:54:54;;;;;;;2.63;1.83;;;;;;;;;;5076615;28;20798;-83
2023/05/10 09:57:21;;;;;;;3.20;1.70;;;;;;;;;;5058669;28;20930;-83
2023/05/10 09:59:47;;;;;;;4.97;2.90;;;;;;;;;;5076662;28;20425;-85
2023/05/10 10:02:14;;;;;;;5.13;2.47;;;;;;;;;;5058744;28;20930;-84
2023/05/10 10:04:40;;;;;;;2.33;1.93;;;;;;;;;;5076254;28;20421;-82
2023/05/10 10:07:07;;;;;;;4.07;2.50;;;;;;;;;;5076582;28;20453;-83
2023/05/10 10:09:33;;;;;;;4.07;3.20;;;;;;;;;;5076439;28;20909;-83
2023/05/10 10:12:00;;;;;;;5.53;2.83;;;;;;;;;;5076367;28;20460;-84
2023/05/10 10:14:26;;;;;;;4.57;3.27;;;;;;;;;;5076385;28;20463;-84
2023/05/10 10:16:52;;;;;;;6.10;3.93;;;;;;;;;;5076350;28;20486;-85
2023/05/10 10:19:21;;;;;;;6.33;3.87;;;;;;;;;;5058457;28;20425;-85
2023/05/10 10:21:50;;;;;;;3.23;2.53;;;;;;;;;;5058002;28;20841;-84
2023/05/10 10:24:16;;;;;;;4.10;3.70;;;;;;;;;;5076180;28;20502;-83
2023/05/10 10:26:43;;;;;;;4.03;2.87;;;;;;;;;;5076166;28;20969;-82
2023/05/10 10:29:27;;;;;;;3.87;2.33;;;;;;;;;;5076124;28;20442;-81
2023/05/10 10:31:56;;;;;;;4.70;3.60;;;;;;;;;;5076010;28;20421;-82
2023/05/10 10:34:29;;;;;;;5.60;3.30;;;;;;;;;;5076409;28;20544;-82
2023/05/10 10:36:56;;;;;;;5.80;3.33;;;;;;;;;;5075678;28;20488;-84
2023/05/10 10:39:22;;;;;;;5.40;3.37;;;;;;;;;;5075980;28;20414;-87
2023/05/10 10:41:52;;;;;;;4.13;3.03;;;;;;;;;;5057926;28;20419;-85
2023/05/10 10:44:40;;;;;;;5.87;4.30;;;;;;;;;;5075871;28;20414;-84
2023/05/10 10:47:14;;;;;;;4.70;3.90;;;;;;;;;;5057854;28;20440;-89
2023/05/10 10:49:42;;;;;;;6.30;4.77;;;;;;;;;;5075410;28;20439;-84
2023/05/10 10:52:15;;;;;;;3.70;3.40;;;;;;;;;;5075716;28;20404;-85
2023/05/10 10:54:41;;;;;;;4.70;3.27;;;;;;;;;;5075523;28;20480;-83
2023/05/10 10:57:12;;;;;;;4.37;3.57;;;;;;;;;;5075605;28;20419;-85
2023/05/10 10:59:43;;;;;;;4.57;3.57;;;;;;;;;;5075127;28;20944;-85
2023/05/10 11:02:09;;;;;;;3.73;3.43;;;;;;;;;;5075675;28;20409;-86
2023/05/10 11:04:46;;;;;;;4.83;3.77;;;;;;;;;;5075220;28;20410;-88
2023/05/10 11:07:18;;;;;;;7.53;3.57;;;;;;;;;;5075594;28;20764;-86
2023/05/10 11:09:44;;;;;;;5.70;3.70;;;;;;;;;;5075282;28;20548;-88
2023/05/10 11:12:10;;;;;;;3.67;3.00;;;;;;;;;;5057607;28;20429;-85
2023/05/10 11:14:36;;;;;;;6.00;3.60;;;;;;;;;;5075373;28;20469;-89
2023/05/10 11:17:02;;;;;;;5.20;3.93;;;;;;;;;;5075418;28;20176;-83
2023/05/10 11:19:28;;;;;;;8.07;4.23;;;;;;;;;;5074875;28;20460;-83
2023/05/10 11:22:03;;;;;;;4.77;3.43;;;;;;;;;;5057244;28;20460;-83
2023/05/10 11:24:29;;;;;;;5.50;3.73;;;;;;;;;;5075166;28;20766;-83
2023/05/10 11:26:56;;;;;;;4.40;3.50;;;;;;;;;;5075070;28;20776;-86
2023/05/10 11:29:23;;;;;;;4.97;3.50;;;;;;;;;;5075358;28;20510;-88
2023/05/10 11:31:49;;;;;;;6.17;4.43;;;;;;;;;;5057288;28;20412;-89
2023/05/10 11:34:25;;;;;;;7.10;4.23;;;;;;;;;;5074970;28;20459;-87
2023/05/10 11:36:53;;;;;;;6.10;4.53;;;;;;;;;;5074926;28;20501;-86
2023/05/10 11:39:19;;;;;;;4.77;4.03;;;;;;;;;;5074940;28;20403;-86
2023/05/10 11:41:47;;;;;;;5.63;5.07;;;;;;;;;;5074853;28;20414;-85
2023/05/10 11:44:13;;;;;;;5.70;4.07;;;;;;;;;;5056825;28;20423;-84
2023/05/10 11:46:39;;;;;;;3.87;3.47;;;;;;;;;;5074672;28;20906;-85
2023/05/10 11:49:08;;;;;;;7.97;5.30;;;;;;;;;;5074648;28;20614;-84
2023/05/10 11:51:35;;;;;;;6.50;5.17;;;;;;;;;;5074261;28;20461;-85
2023/05/10 11:54:01;;;;;;;5.60;4.60;;;;;;;;;;5074397;28;20408;-85
2023/05/10 11:56:27;;;;;;;4.67;3.83;;;;;;;;;;5074493;28;20412;-85
2023/05/10 11:58:57;;;;;;;5.43;4.83;;;;;;;;;;5074361;28;20171;-85
2023/05/10 12:01:24;;;;;;;5.73;4.60;;;;;;;;;;5074285;28;20422;-83
2023/05/10 12:03:50;;;;;;;6.43;4.70;;;;;;;;;;5074443;28;20432;-85
2023/05/10 12:06:17;;;;;;;7.33;4.90;;;;;;;;;;5073948;28;20517;-83
2023/05/10 12:08:47;;;;;;;6.40;5.17;;;;;;;;;;5074303;28;20418;-83
2023/05/10 12:11:15;;;;;;;4.30;3.40;;;;;;;;;;5073055;28;20463;-84
2023/05/10 12:13:42;;;;;;;5.57;4.80;;;;;;;;;;5074273;28;20414;-84
2023/05/10 12:16:15;;;;;;;6.30;5.37;;;;;;;;;;5055854;28;20474;-84
2023/05/10 12:18:42;;;;;;;4.27;3.63;;;;;;;;;;5056087;28;20417;-84
2023/05/10 12:21:10;;;;;;;6.17;5.10;;;;;;;;;;5056269;28;20535;-85
2023/05/10 12:23:36;;;;;;;6.00;4.17;;;;;;;;;;5047310;28;20815;-84
2023/05/10 12:26:04;;;;;;;6.40;4.77;;;;;;;;;;5053215;28;20440;-85
2023/05/10 12:28:30;;;;;;;7.00;5.20;;;;;;;;;;5053644;28;20501;-84
2023/05/10 12:30:57;;;;;;;5.50;4.67;;;;;;;;;;5053443;28;20904;-85
2023/05/10 12:33:23;;;;;;;8.03;5.43;;;;;;;;;;5035696;28;20435;-85
2023/05/10 12:35:51;;;;;;;7.50;5.60;;;;;;;;;;5035086;28;20472;-84
2023/05/10 12:38:28;;;;;;;6.43;4.57;;;;;;;;;;5053675;28;20231;-86
2023/05/10 12:40:54;;;;;;;7.60;4.30;;;;;;;;;;5035602;28;20923;-86
2023/05/10 12:43:20;;;;;;;6.10;4.30;;;;;;;;;;5053498;28;20419;-86
2023/05/10 12:45:48;;;;;;;5.30;3.70;;;;;;;;;;5053393;28;20415;-84
2023/05/10 12:48:14;;;;;;;5.80;4.13;;;;;;;;;;5053512;28;20170;-86
2023/05/10 12:50:40;;;;;;;3.40;3.07;;;;;;;;;;5035218;28;20752;-88
2023/05/10 12:53:06;;;;;;;4.67;3.83;;;;;;;;;;5035373;28;20431;-87
2023/05/10 12:55:32;;;;;;;4.17;3.00;;;;;;;;;;5035500;28;20479;-86
2023/05/10 12:57:58;;;;;;;5.70;4.00;;;;;;;;;;5035373;28;20466;-86
2023/05/10 13:00:24;;;;;;;3.40;3.10;;;;;;;;;;5053158;28;20419;-87
2023/05/10 13:02:50;;;;;;;4.30;2.57;;;;;;;;;;5053107;28;20798;-86
2023/05/10 13:05:16;;;;;;;4.40;3.20;;;;;;;;;;5052781;28;20423;-86
2023/05/10 13:07:43;;;;;;;4.07;2.33;;;;;;;;;;5035289;28;20517;-89
2023/05/10 13:10:09;;;;;;;4.20;3.07;;;;;;;;;;5052679;28;20468;-85
2023/05/10 13:12:35;;;;;;;3.93;2.83;;;;;;;;;;5034930;28;20416;-86
2023/05/10 13:15:02;;;;;;;4.40;2.37;;;;;;;;;;5052786;28;20521;-86
2023/05/10 13:17:31;;;;;;;5.37;3.30;;;;;;;;;;5035041;28;20269;-85
2023/05/10 13:19:57;;;;;;;3.43;3.07;;;;;;;;;;5052530;28;20998;-86
2023/05/10 13:22:23;;;;;;;3.10;2.37;;;;;;;;;;5052774;28;20960;-86
2023/05/10 13:24:49;;;;;;;3.07;1.73;;;;;;;;;;5034867;28;20512;-85
2023/05/10 13:27:15;;;;;;;2.53;1.80;;;;;;;;;;5034875;28;20422;-85
2023/05/10 13:29:41;;;;;;;2.97;1.80;;;;;;;;;;5052704;28;20179;-88
2023/05/10 13:32:07;;;;;;;3.37;1.93;;;;;;;;;;5034767;28;20211;-86
2023/05/10 13:34:33;;;;;;;4.27;3.00;;;;;;;;;;5052212;28;20240;-85
2023/05/10 13:36:59;;;;;;;4.00;3.03;;;;;;;;;;5034859;28;20416;-85
2023/05/10 13:39:25;;;;;;;6.30;3.57;;;;;;;;;;5052966;28;20416;-85
2023/05/10 13:41:50;;;;;;;3.43;2.63;;;;;;;;;;5052827;28;20462;-84
2023/05/10 13:44:16;;;;;;;4.30;2.97;;;;;;;;;;5055559;28;20232;-88
2023/05/10 13:46:43;;;;;;;3.70;2.20;;;;;;;;;;5057533;28;20255;-85
2023/05/10 13:49:09;;;;;;;3.57;1.83;;;;;;;;;;5051701;28;20502;-85
2023/05/10 13:51:35;;;;;;;3.00;2.30;;;;;;;;;;5052453;28;20771;-85
2023/05/10 13:54:02;;;;;;;2.70;1.63;;;;;;;;;;5052575;28;20406;-84
2023/05/10 13:56:28;;;;;;;2.70;2.20;;;;;;;;;;5034150;28;20434;-85
2023/05/10 13:58:54;;;;;;;3.50;2.83;;;;;;;;;;5031891;28;20485;-85
2023/05/10 14:01:20;;;;;;;3.20;2.53;;;;;;;;;;5043661;28;20428;-86
2023/05/10 14:03:46;;;;;;;2.20;1.87;;;;;;;;;;5034600;28;20422;-86
2023/05/10 14:06:12;;;;;;;3.73;2.57;;;;;;;;;;5051747;28;20178;-85
2023/05/10 14:08:38;;;;;;;5.17;2.40;;;;;;;;;;5052276;28;20180;-83
2023/05/10 14:11:04;;;;;;;2.43;2.23;;;;;;;;;;5052292;28;20225;-83
2023/05/10 14:13:30;;;;;;;2.67;2.30;;;;;;;;;;5052265;28;20177;-87
2023/05/10 14:15:56;;;;;;;3.60;2.67;;;;;;;;;;5051567;28;20472;-85
2023/05/10 14:18:22;;;;;;;3.03;1.83;;;;;;;;;;5034366;28;20419;-86
2023/05/10 14:20:48;;;;;;;2.83;2.63;;;;;;;;;;5051791;28;20411;-84
2023/05/10 14:23:16;;;;;;;5.37;3.50;;;;;;;;;;5052032;28;20411;-84
2023/05/10 14:25:43;;;;;;;4.30;2.60;;;;;;;;;;5051999;28;20179;-85
2023/05/10 14:28:09;;;;;;;4.10;3.53;;;;;;;;;;5052040;28;20412;-84
2023/05/10 14:30:35;;;;;;;3.80;2.80;;;;;;;;;;5052103;28;20424;-84
2023/05/10 14:33:02;;;;;;;3.53;3.00;;;;;;;;;;5033751;28;20619;-84
2023/05/10 14:35:30;;;;;;;3.90;2.93;;;;;;;;;;5054445;28;20493;-85
2023/05/10 14:37:56;;;;;;;3.73;2.43;;;;;;;;;;5055617;28;20844;-84
2023/05/10 14:40:22;;;;;;;5.83;3.83;;;;;;;;;;5055601;28;20449;-83
2023/05/10 14:42:48;;;;;;;3.43;3.13;;;;;;;;;;5055650;28;20215;-84